createdAt,value
2017-02-07T00:00:00.660Z,0
2017-02-07T00:00:41.314Z,0
2017-02-07T00:01:21.940Z,0
2017-02-07T00:02:02.517Z,0
2017-02-07T00:02:43.146Z,0
2017-02-07T00:03:23.790Z,0
2017-02-07T00:04:04.352Z,0
2017-02-07T00:04:44.948Z,0
2017-02-07T00:05:25.548Z,0
2017-02-07T00:06:06.201Z,0
2017-02-07T00:06:46.780Z,0
2017-02-07T00:07:27.446Z,0
2017-02-07T00:08:08.056Z,0
2017-02-07T00:08:48.712Z,0
2017-02-07T00:09:29.358Z,0
2017-02-07T00:10:10.030Z,0
2017-02-07T00:10:50.682Z,0
2017-02-07T00:11:31.316Z,0
2017-02-07T00:12:11.974Z,0
2017-02-07T00:12:52.627Z,0
2017-02-07T00:13:33.291Z,0
2017-02-07T00:14:13.931Z,0
2017-02-07T00:14:54.605Z,0
2017-02-07T00:15:35.235Z,0
2017-02-07T00:16:15.890Z,0
2017-02-07T00:16:56.544Z,0
2017-02-07T00:17:37.198Z,0
2017-02-07T00:18:17.848Z,0
2017-02-07T00:18:58.500Z,0
2017-02-07T00:19:39.258Z,0
2017-02-07T00:20:19.912Z,0
2017-02-07T00:21:00.707Z,0
2017-02-07T00:21:41.320Z,0
2017-02-07T00:22:22.073Z,0
2017-02-07T00:23:02.830Z,0
2017-02-07T00:23:43.580Z,0
2017-02-07T00:24:24.339Z,0
2017-02-07T00:25:05.106Z,0
2017-02-07T00:25:45.849Z,0
2017-02-07T00:26:26.511Z,0
2017-02-07T00:27:07.155Z,0
2017-02-07T00:27:47.815Z,0
2017-02-07T00:28:28.466Z,0
2017-02-07T00:29:09.107Z,0
2017-02-07T00:29:49.776Z,0
2017-02-07T00:30:30.419Z,0
2017-02-07T00:31:11.072Z,0
2017-02-07T00:31:51.725Z,0
2017-02-07T00:32:32.377Z,0
2017-02-07T00:33:13.031Z,0
2017-02-07T00:33:53.685Z,0
2017-02-07T00:34:34.337Z,0
2017-02-07T00:35:14.991Z,0
2017-02-07T00:35:55.643Z,0
2017-02-07T00:36:36.297Z,0
2017-02-07T00:37:16.951Z,0
2017-02-07T00:37:57.602Z,0
2017-02-07T00:38:38.255Z,0
2017-02-07T00:39:18.909Z,0
2017-02-07T00:39:59.558Z,0
2017-02-07T00:40:40.216Z,0
2017-02-07T00:41:20.867Z,0
2017-02-07T00:42:01.521Z,0
2017-02-07T00:42:42.173Z,0
2017-02-07T00:43:22.828Z,0
2017-02-07T00:44:03.483Z,0
2017-02-07T00:44:44.131Z,0
2017-02-07T00:45:24.784Z,0
2017-02-07T00:46:05.438Z,0
2017-02-07T00:46:46.095Z,0
2017-02-07T00:47:26.744Z,0
2017-02-07T00:48:07.399Z,0
2017-02-07T00:48:48.124Z,0
2017-02-07T00:49:28.701Z,0
2017-02-07T00:50:09.354Z,0
2017-02-07T00:50:50.007Z,0
2017-02-07T00:51:30.659Z,0
2017-02-07T00:52:11.314Z,0
2017-02-07T00:52:51.967Z,0
2017-02-07T00:53:32.618Z,0
2017-02-07T00:54:13.272Z,0
2017-02-07T00:54:53.924Z,0
2017-02-07T00:55:34.580Z,0
2017-02-07T00:56:15.230Z,0
2017-02-07T00:56:55.884Z,0
2017-02-07T00:57:36.535Z,0
2017-02-07T00:58:17.189Z,0
2017-02-07T00:58:57.847Z,0
2017-02-07T00:59:38.495Z,0
2017-02-07T01:00:19.151Z,0
2017-02-07T01:00:59.798Z,0
2017-02-07T01:01:40.457Z,0
2017-02-07T01:02:21.108Z,0
2017-02-07T01:03:01.759Z,0
2017-02-07T01:03:42.417Z,0
2017-02-07T01:04:23.067Z,0
2017-02-07T01:05:03.720Z,0
2017-02-07T01:05:44.376Z,0
2017-02-07T01:06:25.031Z,0
2017-02-07T01:07:05.680Z,0
2017-02-07T01:07:46.258Z,0
2017-02-07T01:08:26.887Z,0
2017-02-07T01:09:07.539Z,0
2017-02-07T01:09:48.110Z,0
2017-02-07T01:10:28.740Z,0
2017-02-07T01:11:09.427Z,0
2017-02-07T01:11:49.977Z,0
2017-02-07T01:12:30.576Z,0
2017-02-07T01:13:11.255Z,0
2017-02-07T01:13:51.840Z,0
2017-02-07T01:14:32.488Z,0
2017-02-07T01:15:13.105Z,0
2017-02-07T01:15:53.728Z,0
2017-02-07T01:16:34.374Z,0
2017-02-07T01:17:14.993Z,0
2017-02-07T01:17:56.640Z,0
2017-02-07T01:18:37.393Z,0
2017-02-07T01:19:18.049Z,0
2017-02-07T01:19:58.702Z,0
2017-02-07T01:20:39.354Z,0
2017-02-07T01:21:20.006Z,0
2017-02-07T01:22:00.659Z,0
2017-02-07T01:22:41.232Z,0
2017-02-07T01:23:21.799Z,0
2017-02-07T01:24:02.427Z,0
2017-02-07T01:24:43.067Z,0
2017-02-07T01:25:23.630Z,0
2017-02-07T01:26:04.216Z,0
2017-02-07T01:26:44.827Z,0
2017-02-07T01:27:25.472Z,0
2017-02-07T01:28:06.048Z,0
2017-02-07T01:28:46.646Z,0
2017-02-07T01:29:27.228Z,0
2017-02-07T01:30:07.882Z,0
2017-02-07T01:30:48.457Z,0
2017-02-07T01:31:29.026Z,0
2017-02-07T01:32:09.634Z,0
2017-02-07T01:32:50.297Z,0
2017-02-07T01:33:30.951Z,0
2017-02-07T01:34:11.592Z,0
2017-02-07T01:34:52.241Z,0
2017-02-07T01:35:32.910Z,0
2017-02-07T01:36:13.554Z,0
2017-02-07T01:36:54.208Z,0
2017-02-07T01:37:34.868Z,0
2017-02-07T01:38:15.510Z,0
2017-02-07T01:38:56.175Z,0
2017-02-07T01:39:36.818Z,0
2017-02-07T01:40:17.472Z,0
2017-02-07T01:40:58.122Z,0
2017-02-07T01:41:38.775Z,0
2017-02-07T01:42:19.438Z,0
2017-02-07T01:43:00.007Z,0
2017-02-07T01:43:40.588Z,0
2017-02-07T01:44:21.192Z,0
2017-02-07T01:45:01.835Z,0
2017-02-07T01:45:42.395Z,0
2017-02-07T01:46:22.990Z,0
2017-02-07T01:47:03.593Z,0
2017-02-07T01:47:44.248Z,0
2017-02-07T01:48:24.899Z,0
2017-02-07T01:49:05.549Z,0
2017-02-07T01:49:46.210Z,0
2017-02-07T01:50:26.852Z,0
2017-02-07T01:51:07.513Z,0
2017-02-07T01:51:48.161Z,0
2017-02-07T01:52:28.808Z,0
2017-02-07T01:53:09.467Z,0
2017-02-07T01:53:50.120Z,0
2017-02-07T01:54:30.772Z,0
2017-02-07T01:55:11.427Z,0
2017-02-07T01:55:52.078Z,0
2017-02-07T01:56:32.746Z,0
2017-02-07T01:57:13.385Z,0
2017-02-07T01:57:54.038Z,0
2017-02-07T01:58:34.695Z,0
2017-02-07T01:59:15.426Z,0
2017-02-07T01:59:56.003Z,0
2017-02-07T02:00:36.648Z,0
2017-02-07T02:01:17.301Z,0
2017-02-07T02:01:57.876Z,0
2017-02-07T02:02:38.505Z,0
2017-02-07T02:03:19.161Z,0
2017-02-07T02:03:59.814Z,0
2017-02-07T02:04:40.467Z,0
2017-02-07T02:05:21.117Z,0
2017-02-07T02:06:01.770Z,0
2017-02-07T02:06:42.417Z,0
2017-02-07T02:07:23.077Z,0
2017-02-07T02:08:03.730Z,0
2017-02-07T02:08:44.381Z,0
2017-02-07T02:09:25.034Z,0
2017-02-07T02:10:05.691Z,0
2017-02-07T02:10:46.345Z,0
2017-02-07T02:11:26.995Z,0
2017-02-07T02:12:07.660Z,0
2017-02-07T02:12:48.300Z,0
2017-02-07T02:13:28.953Z,0
2017-02-07T02:14:09.607Z,0
2017-02-07T02:14:50.263Z,0
2017-02-07T02:15:30.914Z,0
2017-02-07T02:16:11.565Z,0
2017-02-07T02:16:52.217Z,0
2017-02-07T02:17:32.870Z,0
2017-02-07T02:18:13.542Z,0
2017-02-07T02:18:54.281Z,0
2017-02-07T02:19:34.935Z,0
2017-02-07T02:20:15.592Z,0
2017-02-07T02:20:56.238Z,0
2017-02-07T02:21:36.929Z,0
2017-02-07T02:22:17.545Z,0
2017-02-07T02:22:58.130Z,0
2017-02-07T02:23:38.800Z,0
2017-02-07T02:24:19.401Z,0
2017-02-07T02:25:00.064Z,0
2017-02-07T02:25:40.621Z,0
2017-02-07T02:26:21.199Z,0
2017-02-07T02:27:01.808Z,0
2017-02-07T02:27:42.462Z,0
2017-02-07T02:28:23.116Z,0
2017-02-07T02:29:03.767Z,0
2017-02-07T02:29:44.420Z,0
2017-02-07T02:30:25.071Z,0
2017-02-07T02:31:05.726Z,0
2017-02-07T02:31:46.388Z,0
2017-02-07T02:32:27.033Z,0
2017-02-07T02:33:07.600Z,0
2017-02-07T02:33:48.192Z,0
2017-02-07T02:34:29.810Z,0
2017-02-07T02:35:10.464Z,0
2017-02-07T02:35:51.036Z,0
2017-02-07T02:36:31.607Z,0
2017-02-07T02:37:12.217Z,0
2017-02-07T02:37:52.868Z,0
2017-02-07T02:38:33.534Z,0
2017-02-07T02:39:14.177Z,0
2017-02-07T02:39:54.831Z,0
2017-02-07T02:40:35.481Z,0
2017-02-07T02:41:16.125Z,0
2017-02-07T02:41:56.791Z,0
2017-02-07T02:42:37.440Z,0
2017-02-07T02:43:18.105Z,0
2017-02-07T02:43:58.749Z,0
2017-02-07T02:44:39.399Z,0
2017-02-07T02:45:20.053Z,0
2017-02-07T02:46:00.704Z,0
2017-02-07T02:46:41.359Z,0
2017-02-07T02:47:22.012Z,0
2017-02-07T02:48:02.663Z,0
2017-02-07T02:48:43.315Z,0
2017-02-07T02:49:23.972Z,0
2017-02-07T02:50:04.629Z,0
2017-02-07T02:50:45.276Z,0
2017-02-07T02:51:25.927Z,0
2017-02-07T02:52:06.582Z,0
2017-02-07T02:52:47.236Z,0
2017-02-07T02:53:27.795Z,0
2017-02-07T02:54:08.398Z,0
2017-02-07T02:54:48.989Z,0
2017-02-07T02:55:29.643Z,0
2017-02-07T02:56:10.217Z,0
2017-02-07T02:56:50.816Z,0
2017-02-07T02:57:31.384Z,0
2017-02-07T02:58:12.051Z,0
2017-02-07T02:58:52.609Z,0
2017-02-07T02:59:33.219Z,0
2017-02-07T03:00:13.804Z,0
2017-02-07T03:00:54.462Z,0
2017-02-07T03:01:35.023Z,0
2017-02-07T03:02:15.629Z,0
2017-02-07T03:02:56.211Z,0
2017-02-07T03:03:36.851Z,0
2017-02-07T03:04:17.509Z,0
2017-02-07T03:04:58.169Z,0
2017-02-07T03:05:38.824Z,0
2017-02-07T03:06:19.474Z,0
2017-02-07T03:07:00.128Z,0
2017-02-07T03:07:40.788Z,0
2017-02-07T03:08:21.433Z,0
2017-02-07T03:09:02.094Z,0
2017-02-07T03:09:42.745Z,0
2017-02-07T03:10:23.393Z,0
2017-02-07T03:11:04.046Z,0
2017-02-07T03:11:44.698Z,0
2017-02-07T03:12:25.351Z,0
2017-02-07T03:13:06.013Z,0
2017-02-07T03:13:46.576Z,0
2017-02-07T03:14:27.213Z,0
2017-02-07T03:15:07.782Z,0
2017-02-07T03:15:48.411Z,0
2017-02-07T03:16:28.970Z,0
2017-02-07T03:17:09.620Z,0
2017-02-07T03:17:50.188Z,0
2017-02-07T03:18:30.822Z,0
2017-02-07T03:19:11.392Z,0
2017-02-07T03:19:51.987Z,0
2017-02-07T03:20:32.576Z,0
2017-02-07T03:21:13.231Z,0
2017-02-07T03:21:53.782Z,0
2017-02-07T03:22:34.387Z,0
2017-02-07T03:23:14.984Z,0
2017-02-07T03:23:55.634Z,0
2017-02-07T03:24:36.291Z,0
2017-02-07T03:25:16.941Z,0
2017-02-07T03:25:57.612Z,0
2017-02-07T03:26:38.246Z,0
2017-02-07T03:27:18.898Z,0
2017-02-07T03:27:59.467Z,0
2017-02-07T03:28:40.057Z,0
2017-02-07T03:29:20.652Z,0
2017-02-07T03:30:01.304Z,0
2017-02-07T03:30:41.874Z,0
2017-02-07T03:31:22.464Z,0
2017-02-07T03:32:03.061Z,0
2017-02-07T03:32:43.711Z,0
2017-02-07T03:33:24.281Z,0
2017-02-07T03:34:04.855Z,0
2017-02-07T03:34:45.467Z,0
2017-02-07T03:35:26.121Z,0
2017-02-07T03:36:06.697Z,0
2017-02-07T03:36:47.383Z,0
2017-02-07T03:37:27.974Z,0
2017-02-07T03:38:08.627Z,0
2017-02-07T03:38:49.282Z,0
2017-02-07T03:39:29.932Z,0
2017-02-07T03:40:10.587Z,0
2017-02-07T03:40:51.244Z,0
2017-02-07T03:41:31.893Z,0
2017-02-07T03:42:12.539Z,0
2017-02-07T03:42:53.197Z,0
2017-02-07T03:43:33.750Z,0
2017-02-07T03:44:14.368Z,0
2017-02-07T03:44:54.945Z,0
2017-02-07T03:45:35.606Z,0
2017-02-07T03:46:16.162Z,0
2017-02-07T03:46:56.778Z,0
2017-02-07T03:47:37.461Z,0
2017-02-07T03:48:18.116Z,0
2017-02-07T03:48:58.771Z,0
2017-02-07T03:49:39.420Z,0
2017-02-07T03:50:20.073Z,0
2017-02-07T03:51:00.728Z,0
2017-02-07T03:51:41.380Z,0
2017-02-07T03:52:22.035Z,0
2017-02-07T03:53:02.686Z,0
2017-02-07T03:53:43.236Z,0
2017-02-07T03:54:23.842Z,0
2017-02-07T03:55:04.438Z,0
2017-02-07T03:55:45.093Z,0
2017-02-07T03:56:25.654Z,0
2017-02-07T03:57:06.250Z,0
2017-02-07T03:57:46.850Z,0
2017-02-07T03:58:27.498Z,0
2017-02-07T03:59:08.153Z,0
2017-02-07T03:59:48.803Z,0
2017-02-07T04:00:29.464Z,0
2017-02-07T04:01:10.113Z,0
2017-02-07T04:01:50.765Z,0
2017-02-07T04:02:31.419Z,0
2017-02-07T04:03:12.074Z,0
2017-02-07T04:03:52.725Z,0
2017-02-07T04:04:33.374Z,0
2017-02-07T04:05:14.025Z,0
2017-02-07T04:05:54.679Z,0
2017-02-07T04:06:35.333Z,0
2017-02-07T04:07:15.988Z,0
2017-02-07T04:07:56.638Z,0
2017-02-07T04:08:37.206Z,0
2017-02-07T04:09:17.811Z,0
2017-02-07T04:09:58.393Z,0
2017-02-07T04:10:39.046Z,0
2017-02-07T04:11:19.615Z,0
2017-02-07T04:12:00.220Z,0
2017-02-07T04:12:40.900Z,0
2017-02-07T04:13:21.552Z,0
2017-02-07T04:14:02.127Z,0
2017-02-07T04:14:42.732Z,0
2017-02-07T04:15:23.410Z,0
2017-02-07T04:16:04.068Z,0
2017-02-07T04:16:44.629Z,0
2017-02-07T04:17:25.221Z,0
2017-02-07T04:18:05.824Z,0
2017-02-07T04:18:46.475Z,0
2017-02-07T04:19:27.035Z,0
2017-02-07T04:20:07.637Z,0
2017-02-07T04:20:48.233Z,0
2017-02-07T04:21:30.003Z,0
2017-02-07T04:22:10.571Z,72
2017-02-07T04:22:51.176Z,0
2017-02-07T04:23:31.763Z,0
2017-02-07T04:24:12.329Z,0
2017-02-07T04:24:52.958Z,0
2017-02-07T04:25:33.642Z,0
2017-02-07T04:26:14.215Z,0
2017-02-07T04:26:54.817Z,0
2017-02-07T04:27:35.470Z,0
2017-02-07T04:28:16.036Z,0
2017-02-07T04:28:57.609Z,0
2017-02-07T04:29:38.253Z,0
2017-02-07T04:30:18.816Z,0
2017-02-07T04:30:59.449Z,0
2017-02-07T04:31:40.109Z,0
2017-02-07T04:32:20.669Z,0
2017-02-07T04:33:01.315Z,0
2017-02-07T04:33:41.967Z,0
2017-02-07T04:34:22.528Z,0
2017-02-07T04:35:03.128Z,0
2017-02-07T04:35:43.720Z,0
2017-02-07T04:36:24.373Z,0
2017-02-07T04:37:04.948Z,0
2017-02-07T04:37:45.544Z,0
2017-02-07T04:38:26.118Z,0
2017-02-07T04:39:06.784Z,0
2017-02-07T04:39:47.434Z,0
2017-02-07T04:40:28.080Z,0
2017-02-07T04:41:08.736Z,0
2017-02-07T04:41:49.397Z,0
2017-02-07T04:42:30.044Z,0
2017-02-07T04:43:10.704Z,0
2017-02-07T04:43:51.340Z,0
2017-02-07T04:44:31.923Z,0
2017-02-07T04:45:12.520Z,0
2017-02-07T04:45:53.204Z,0
2017-02-07T04:46:33.864Z,0
2017-02-07T04:47:14.443Z,0
2017-02-07T04:47:55.124Z,0
2017-02-07T04:48:35.706Z,0
2017-02-07T04:49:16.365Z,0
2017-02-07T04:49:56.953Z,0
2017-02-07T04:50:37.540Z,0
2017-02-07T04:51:18.127Z,0
2017-02-07T04:51:58.774Z,0
2017-02-07T04:52:39.340Z,0
2017-02-07T04:53:19.936Z,0
2017-02-07T04:54:00.522Z,0
2017-02-07T04:54:41.179Z,0
2017-02-07T04:55:21.750Z,0
2017-02-07T04:56:02.327Z,0
2017-02-07T04:56:42.940Z,0
2017-02-07T04:57:23.587Z,0
2017-02-07T04:58:04.161Z,0
2017-02-07T04:58:45.827Z,0
2017-02-07T04:59:26.473Z,0
2017-02-07T05:00:07.136Z,0
2017-02-07T05:00:47.778Z,0
2017-02-07T05:01:28.430Z,0
2017-02-07T05:02:09.079Z,0
2017-02-07T05:02:49.731Z,0
2017-02-07T05:03:30.304Z,0
2017-02-07T05:04:10.931Z,0
2017-02-07T05:04:51.585Z,0
2017-02-07T05:05:32.149Z,0
2017-02-07T05:06:12.790Z,0
2017-02-07T05:06:53.452Z,0
2017-02-07T05:07:34.014Z,0
2017-02-07T05:08:14.641Z,0
2017-02-07T05:08:55.296Z,0
2017-02-07T05:09:35.872Z,0
2017-02-07T05:10:16.468Z,0
2017-02-07T05:10:57.041Z,0
2017-02-07T05:11:37.715Z,0
2017-02-07T05:12:18.280Z,0
2017-02-07T05:12:58.876Z,0
2017-02-07T05:13:39.456Z,0
2017-02-07T05:14:20.110Z,0
2017-02-07T05:15:00.684Z,0
2017-02-07T05:15:41.262Z,0
2017-02-07T05:16:21.875Z,0
2017-02-07T05:17:02.529Z,0
2017-02-07T05:17:43.082Z,0
2017-02-07T05:18:23.730Z,0
2017-02-07T05:19:05.362Z,0
2017-02-07T05:19:45.945Z,0
2017-02-07T05:20:26.610Z,0
2017-02-07T05:21:10.013Z,0
2017-02-07T05:21:50.658Z,0
2017-02-07T05:22:31.311Z,0
2017-02-07T05:23:11.869Z,0
2017-02-07T05:23:52.480Z,0
2017-02-07T05:24:33.110Z,0
2017-02-07T05:25:13.780Z,0
2017-02-07T05:25:54.415Z,0
2017-02-07T05:26:35.089Z,0
2017-02-07T05:27:15.731Z,0
2017-02-07T05:27:56.382Z,0
2017-02-07T05:28:36.983Z,0
2017-02-07T05:29:17.626Z,0
2017-02-07T05:29:58.206Z,0
2017-02-07T05:30:38.779Z,0
2017-02-07T05:31:19.388Z,0
2017-02-07T05:32:00.059Z,0
2017-02-07T05:32:40.601Z,76
2017-02-07T05:33:21.183Z,0
2017-02-07T05:34:01.796Z,0
2017-02-07T05:34:42.443Z,0
2017-02-07T05:35:23.004Z,0
2017-02-07T05:36:03.590Z,0
2017-02-07T05:36:44.192Z,0
2017-02-07T05:37:24.854Z,0
2017-02-07T05:38:05.415Z,0
2017-02-07T05:38:46.057Z,0
2017-02-07T05:39:26.711Z,0
2017-02-07T05:40:07.282Z,0
2017-02-07T05:40:47.914Z,0
2017-02-07T05:41:28.574Z,0
2017-02-07T05:42:09.139Z,0
2017-02-07T05:42:49.762Z,0
2017-02-07T05:43:30.421Z,0
2017-02-07T05:44:10.993Z,0
2017-02-07T05:44:51.585Z,0
2017-02-07T05:45:32.160Z,0
2017-02-07T05:46:12.829Z,0
2017-02-07T05:46:53.397Z,0
2017-02-07T05:47:34.001Z,0
2017-02-07T05:48:14.568Z,0
2017-02-07T05:48:55.233Z,0
2017-02-07T05:49:35.824Z,0
2017-02-07T05:50:16.487Z,0
2017-02-07T05:50:57.084Z,0
2017-02-07T05:51:37.742Z,0
2017-02-07T05:52:18.315Z,0
2017-02-07T05:52:58.906Z,0
2017-02-07T05:53:39.499Z,0
2017-02-07T05:54:20.145Z,0
2017-02-07T05:55:00.795Z,0
2017-02-07T05:55:41.457Z,0
2017-02-07T05:56:22.108Z,0
2017-02-07T05:57:02.760Z,0
2017-02-07T05:57:43.411Z,0
2017-02-07T05:58:24.065Z,0
2017-02-07T05:59:04.725Z,0
2017-02-07T05:59:45.374Z,0
2017-02-07T06:00:26.026Z,0
2017-02-07T06:01:06.673Z,0
2017-02-07T06:01:47.330Z,0
2017-02-07T06:02:27.978Z,0
2017-02-07T06:03:08.638Z,0
2017-02-07T06:03:49.288Z,0
2017-02-07T06:04:29.944Z,0
2017-02-07T06:05:10.594Z,0
2017-02-07T06:05:51.248Z,0
2017-02-07T06:06:31.909Z,0
2017-02-07T06:07:12.556Z,0
2017-02-07T06:07:53.205Z,0
2017-02-07T06:08:33.766Z,0
2017-02-07T06:09:14.473Z,0
2017-02-07T06:09:55.082Z,0
2017-02-07T06:10:35.718Z,0
2017-02-07T06:11:16.291Z,0
2017-02-07T06:11:56.865Z,0
2017-02-07T06:12:37.483Z,0
2017-02-07T06:13:18.121Z,0
2017-02-07T06:13:58.686Z,0
2017-02-07T06:14:39.301Z,0
2017-02-07T06:15:19.977Z,0
2017-02-07T06:16:00.639Z,0
2017-02-07T06:16:41.206Z,0
2017-02-07T06:17:21.798Z,0
2017-02-07T06:18:02.384Z,0
2017-02-07T06:18:43.044Z,0
2017-02-07T06:19:23.623Z,0
2017-02-07T06:20:04.207Z,0
2017-02-07T06:20:44.808Z,0
2017-02-07T06:21:25.455Z,0
2017-02-07T06:22:06.030Z,0
2017-02-07T06:22:46.722Z,0
2017-02-07T06:23:27.314Z,0
2017-02-07T06:24:07.953Z,0
2017-02-07T06:24:48.606Z,0
2017-02-07T06:25:29.259Z,0
2017-02-07T06:26:09.913Z,0
2017-02-07T06:26:50.574Z,0
2017-02-07T06:27:31.227Z,0
2017-02-07T06:28:11.871Z,0
2017-02-07T06:28:52.532Z,0
2017-02-07T06:29:33.176Z,0
2017-02-07T06:30:13.829Z,0
2017-02-07T06:30:54.484Z,0
2017-02-07T06:31:35.141Z,4
2017-02-07T06:32:15.799Z,4
2017-02-07T06:32:56.453Z,4
2017-02-07T06:33:37.098Z,4
2017-02-07T06:34:17.748Z,4
2017-02-07T06:34:58.403Z,0
2017-02-07T06:35:39.063Z,4
2017-02-07T06:36:19.705Z,4
2017-02-07T06:37:00.365Z,4
2017-02-07T06:37:41.021Z,4
2017-02-07T06:38:21.666Z,4
2017-02-07T06:39:02.249Z,4
2017-02-07T06:39:42.810Z,4
2017-02-07T06:40:23.433Z,8
2017-02-07T06:41:04.073Z,8
2017-02-07T06:41:44.641Z,4
2017-02-07T06:42:25.240Z,8
2017-02-07T06:43:05.834Z,8
2017-02-07T06:43:46.489Z,12
2017-02-07T06:44:27.090Z,8
2017-02-07T06:45:07.757Z,12
2017-02-07T06:45:48.343Z,12
2017-02-07T06:46:28.987Z,12
2017-02-07T06:47:09.556Z,16
2017-02-07T06:47:50.163Z,16
2017-02-07T06:48:30.834Z,16
2017-02-07T06:49:11.494Z,16
2017-02-07T06:49:52.059Z,20
2017-02-07T06:50:32.695Z,20
2017-02-07T06:51:13.367Z,24
2017-02-07T06:51:53.936Z,24
2017-02-07T06:52:34.546Z,28
2017-02-07T06:53:15.205Z,32
2017-02-07T06:53:55.857Z,32
2017-02-07T06:54:36.508Z,36
2017-02-07T06:55:17.177Z,36
2017-02-07T06:55:57.817Z,40
2017-02-07T06:56:38.466Z,40
2017-02-07T06:57:19.121Z,40
2017-02-07T06:57:59.795Z,40
2017-02-07T06:58:40.430Z,40
2017-02-07T06:59:21.078Z,44
2017-02-07T07:00:01.749Z,44
2017-02-07T07:00:42.387Z,44
2017-02-07T07:01:23.063Z,52
2017-02-07T07:02:03.692Z,56
2017-02-07T07:02:44.344Z,60
2017-02-07T07:03:24.995Z,64
2017-02-07T07:04:05.655Z,68
2017-02-07T07:04:46.311Z,72
2017-02-07T07:05:26.954Z,84
2017-02-07T07:06:07.606Z,88
2017-02-07T07:06:48.268Z,96
2017-02-07T07:07:28.920Z,104
2017-02-07T07:08:09.570Z,112
2017-02-07T07:08:50.133Z,120
2017-02-07T07:09:30.807Z,124
2017-02-07T07:10:11.423Z,128
2017-02-07T07:10:52.075Z,132
2017-02-07T07:11:32.719Z,132
2017-02-07T07:12:13.330Z,136
2017-02-07T07:12:53.933Z,136
2017-02-07T07:13:34.591Z,136
2017-02-07T07:14:15.242Z,136
2017-02-07T07:14:55.802Z,140
2017-02-07T07:15:36.453Z,140
2017-02-07T07:16:17.100Z,144
2017-02-07T07:16:57.754Z,152
2017-02-07T07:17:38.413Z,156
2017-02-07T07:18:19.057Z,156
2017-02-07T07:18:59.636Z,168
2017-02-07T07:19:40.212Z,172
2017-02-07T07:20:20.798Z,176
2017-02-07T07:21:01.462Z,180
2017-02-07T07:21:42.026Z,188
2017-02-07T07:22:22.628Z,196
2017-02-07T07:23:03.210Z,200
2017-02-07T07:23:43.884Z,204
2017-02-07T07:24:24.532Z,216
2017-02-07T07:25:05.181Z,220
2017-02-07T07:25:45.827Z,228
2017-02-07T07:26:26.475Z,232
2017-02-07T07:27:07.137Z,244
2017-02-07T07:27:47.783Z,248
2017-02-07T07:28:28.441Z,252
2017-02-07T07:29:09.100Z,260
2017-02-07T07:29:49.754Z,272
2017-02-07T07:30:30.403Z,280
2017-02-07T07:31:11.061Z,292
2017-02-07T07:31:51.715Z,292
2017-02-07T07:32:32.361Z,296
2017-02-07T07:33:13.016Z,312
2017-02-07T07:33:53.589Z,316
2017-02-07T07:34:34.218Z,320
2017-02-07T07:35:14.878Z,336
2017-02-07T07:35:55.523Z,340
2017-02-07T07:36:36.172Z,348
2017-02-07T07:37:16.820Z,348
2017-02-07T07:37:57.581Z,348
2017-02-07T07:38:38.241Z,348
2017-02-07T07:39:18.892Z,344
2017-02-07T07:39:59.546Z,340
2017-02-07T07:40:40.191Z,340
2017-02-07T07:41:20.849Z,340
2017-02-07T07:42:01.508Z,336
2017-02-07T07:42:42.153Z,328
2017-02-07T07:43:22.807Z,328
2017-02-07T07:44:03.459Z,332
2017-02-07T07:44:44.114Z,332
2017-02-07T07:45:24.769Z,344
2017-02-07T07:46:05.334Z,352
2017-02-07T07:46:45.969Z,360
2017-02-07T07:47:26.580Z,372
2017-02-07T07:48:07.240Z,388
2017-02-07T07:48:47.959Z,396
2017-02-07T07:49:28.579Z,408
2017-02-07T07:50:09.149Z,424
2017-02-07T07:50:49.785Z,448
2017-02-07T07:51:30.441Z,460
2017-02-07T07:52:11.020Z,472
2017-02-07T07:52:51.633Z,488
2017-02-07T07:53:32.288Z,496
2017-02-07T07:54:12.949Z,504
2017-02-07T07:54:53.599Z,512
2017-02-07T07:55:34.253Z,516
2017-02-07T07:56:14.905Z,524
2017-02-07T07:56:55.556Z,536
2017-02-07T07:57:36.215Z,556
2017-02-07T07:58:16.862Z,588
2017-02-07T07:58:57.519Z,628
2017-02-07T07:59:38.159Z,644
2017-02-07T08:00:19.833Z,684
2017-02-07T08:01:01.511Z,704
2017-02-07T08:01:42.163Z,724
2017-02-07T08:02:23.736Z,736
2017-02-07T08:03:04.400Z,740
2017-02-07T08:03:44.970Z,728
2017-02-07T08:04:25.551Z,716
2017-02-07T08:05:06.143Z,700
2017-02-07T08:05:47.819Z,684
2017-02-07T08:06:28.383Z,668
2017-02-07T08:07:09.004Z,668
2017-02-07T08:07:55.102Z,660
2017-02-07T08:08:35.785Z,648
2017-02-07T08:09:16.408Z,636
2017-02-07T08:09:57.984Z,624
2017-02-07T08:10:43.349Z,612
2017-02-07T08:11:24.005Z,600
2017-02-07T08:12:06.597Z,600
2017-02-07T08:12:47.261Z,600
2017-02-07T08:13:28.928Z,612
2017-02-07T08:14:09.591Z,632
2017-02-07T08:14:50.263Z,656
2017-02-07T08:15:31.912Z,688
2017-02-07T08:16:13.597Z,716
2017-02-07T08:16:54.250Z,748
2017-02-07T08:17:35.918Z,772
2017-02-07T08:18:16.579Z,800
2017-02-07T08:18:58.257Z,816
2017-02-07T08:19:38.904Z,824
2017-02-07T08:20:24.401Z,828
2017-02-07T08:21:05.226Z,836
2017-02-07T08:21:47.934Z,836
2017-02-07T08:22:29.742Z,844
2017-02-07T08:23:10.302Z,860
2017-02-07T08:23:50.907Z,872
2017-02-07T08:24:31.569Z,892
2017-02-07T08:25:12.137Z,904
2017-02-07T08:25:53.791Z,916
2017-02-07T08:26:34.450Z,912
2017-02-07T08:27:15.015Z,916
2017-02-07T08:27:56.670Z,920
2017-02-07T08:28:38.243Z,924
2017-02-07T08:29:18.793Z,936
2017-02-07T08:29:59.408Z,944
2017-02-07T08:30:40.004Z,944
2017-02-07T08:31:20.663Z,940
2017-02-07T08:32:01.237Z,932
2017-02-07T08:32:41.926Z,928
2017-02-07T08:33:28.372Z,924
2017-02-07T08:34:09.024Z,912
2017-02-07T08:34:50.601Z,904
2017-02-07T08:35:32.293Z,904
2017-02-07T08:36:12.933Z,904
2017-02-07T08:36:58.400Z,904
2017-02-07T08:37:39.045Z,908
2017-02-07T08:38:19.706Z,912
2017-02-07T08:39:00.263Z,920
2017-02-07T08:39:40.908Z,928
2017-02-07T08:40:21.569Z,936
2017-02-07T08:41:02.146Z,952
2017-02-07T08:41:43.782Z,968
2017-02-07T08:42:25.362Z,988
2017-02-07T08:43:05.945Z,992
2017-02-07T08:43:46.576Z,988
2017-02-07T08:44:27.246Z,980
2017-02-07T08:45:07.800Z,976
2017-02-07T08:45:48.418Z,972
2017-02-07T08:46:29.079Z,964
2017-02-07T08:47:09.630Z,952
2017-02-07T08:47:51.306Z,932
2017-02-07T08:48:33.901Z,916
2017-02-07T08:49:14.553Z,904
2017-02-07T08:49:55.127Z,880
2017-02-07T08:50:35.761Z,856
2017-02-07T08:51:18.363Z,832
2017-02-07T08:51:59.012Z,824
2017-02-07T08:52:39.664Z,820
2017-02-07T08:53:20.319Z,828
2017-02-07T08:54:00.874Z,832
2017-02-07T08:54:41.472Z,836
2017-02-07T08:55:23.097Z,840
2017-02-07T08:56:03.748Z,856
2017-02-07T08:56:44.319Z,868
2017-02-07T08:57:26.946Z,888
2017-02-07T08:58:07.554Z,924
2017-02-07T08:58:48.203Z,964
2017-02-07T08:59:28.773Z,996
2017-02-07T09:00:10.410Z,1036
2017-02-07T09:00:53.035Z,1060
2017-02-07T09:01:33.673Z,1092
2017-02-07T09:02:14.253Z,1124
2017-02-07T09:02:55.878Z,1156
2017-02-07T09:03:36.469Z,1172
2017-02-07T09:04:17.116Z,1168
2017-02-07T09:04:57.684Z,1144
2017-02-07T09:05:43.301Z,1096
2017-02-07T09:06:23.880Z,1044
2017-02-07T09:07:04.543Z,1024
2017-02-07T09:07:45.115Z,1020
2017-02-07T09:08:25.841Z,1028
2017-02-07T09:09:06.482Z,1040
2017-02-07T09:09:47.155Z,1068
2017-02-07T09:10:29.744Z,1096
2017-02-07T09:11:11.310Z,1116
2017-02-07T09:11:51.970Z,1112
2017-02-07T09:12:32.629Z,1096
2017-02-07T09:13:14.300Z,1064
2017-02-07T09:13:55.873Z,1032
2017-02-07T09:14:42.160Z,992
2017-02-07T09:15:23.836Z,964
2017-02-07T09:16:04.503Z,1012
2017-02-07T09:16:45.135Z,964
2017-02-07T09:17:26.721Z,860
2017-02-07T09:18:12.183Z,828
2017-02-07T09:18:52.832Z,812
2017-02-07T09:19:33.525Z,800
2017-02-07T09:20:15.177Z,804
2017-02-07T09:20:55.810Z,800
2017-02-07T09:21:36.370Z,800
2017-02-07T09:22:18.007Z,792
2017-02-07T09:22:58.658Z,788
2017-02-07T09:23:39.304Z,780
2017-02-07T09:24:24.613Z,788
2017-02-07T09:25:07.222Z,800
2017-02-07T09:25:47.848Z,808
2017-02-07T09:26:28.479Z,808
2017-02-07T09:27:10.083Z,812
2017-02-07T09:27:50.773Z,824
2017-02-07T09:28:31.335Z,840
2017-02-07T09:29:12.119Z,860
2017-02-07T09:29:52.706Z,884
2017-02-07T09:30:33.360Z,920
2017-02-07T09:31:13.942Z,944
2017-02-07T09:31:56.581Z,980
2017-02-07T09:32:37.185Z,1000
2017-02-07T09:33:17.822Z,1000
2017-02-07T09:33:58.398Z,1008
2017-02-07T09:34:41.022Z,1024
2017-02-07T09:35:22.652Z,1024
2017-02-07T09:36:04.329Z,1032
2017-02-07T09:36:44.896Z,1032
2017-02-07T09:37:26.501Z,1028
2017-02-07T09:38:09.163Z,1036
2017-02-07T09:38:50.828Z,1032
2017-02-07T09:39:31.404Z,1020
2017-02-07T09:40:12.030Z,1032
2017-02-07T09:40:54.732Z,1024
2017-02-07T09:41:35.308Z,1020
2017-02-07T09:42:15.939Z,1012
2017-02-07T09:42:56.591Z,1008
2017-02-07T09:43:37.157Z,1024
2017-02-07T09:44:18.820Z,1044
2017-02-07T09:45:00.489Z,1076
2017-02-07T09:45:41.146Z,1104
2017-02-07T09:46:22.825Z,1128
2017-02-07T09:47:03.485Z,1144
2017-02-07T09:47:45.167Z,1164
2017-02-07T09:48:26.830Z,1196